Time;durP1;ratioP1;P1;durP2;ratioP2;P2;SDS_P1;SDS_P2;PMS_P1;PMS_P2;Temp;Humidity;BMP_temperature;BMP_pressure;BME280_temperature;BME280_humidity;BME280_pressure;Samples;Min_cycle;Max_cycle;Signal;HPM_P1;HPM_P2
2022/11/24 05:24:47;;;;;;;19.48;10.75;;;;;;;0.92;100.00;100189.45;1798505;79;21082;-64
2022/11/24 05:27:16;;;;;;;17.37;10.03;;;;;;;0.95;100.00;100184.89;1797285;79;21094;-60
2022/11/24 05:29:45;;;;;;;17.02;10.43;;;;;;;0.95;100.00;100191.30;1781879;79;20856;-60
2022/11/24 05:32:12;;;;;;;17.40;10.45;;;;;;;0.92;100.00;100195.87;1774464;79;20991;-60
2022/11/24 05:34:39;;;;;;;17.57;10.03;;;;;;;0.92;100.00;100208.23;1785411;78;21032;-60
2022/11/24 05:37:07;;;;;;;18.27;10.60;;;;;;;0.90;100.00;100204.95;1774322;79;20918;-68
2022/11/24 05:39:35;;;;;;;19.77;11.10;;;;;;;0.91;100.00;100201.91;1792735;78;21394;-60
2022/11/24 05:42:39;;;;;;;20.32;10.93;;;;;;;0.88;100.00;100195.77;1778207;80;21513;-65
2022/11/24 05:44:33;;;;;;;17.05;10.72;;;;;;;0.86;100.00;100195.88;1753921;81;21005;-59
2022/11/24 05:47:03;;;;;;;18.10;11.05;;;;;;;0.89;100.00;100190.97;1766129;80;20986;-61
2022/11/24 05:49:31;;;;;;;20.43;11.75;;;;;;;0.90;100.00;100193.41;1773907;80;20982;-59
2022/11/24 05:51:58;;;;;;;19.40;11.18;;;;;;;0.86;100.00;100187.36;1773305;80;21317;-63
2022/11/24 07:16:41;;;;;;;20.77;13.07;;;;;;;1.67;100.00;100168.73;1861269;75;22557;-61
2022/11/24 07:19:09;;;;;;;20.75;12.25;;;;;;;1.73;100.00;100162.73;1837233;76;21060;-60
2022/11/24 07:21:36;;;;;;;20.12;11.50;;;;;;;1.75;100.00;100154.44;1835866;76;21230;-59
2022/11/24 07:24:04;;;;;;;21.97;12.88;;;;;;;1.84;100.00;100150.61;1828683;76;20899;-60
2022/11/24 07:26:36;;;;;;;18.30;11.83;;;;;;;1.92;100.00;100168.77;1836839;77;21398;-60
2022/11/24 07:29:01;;;;;;;18.60;10.85;;;;;;;1.94;100.00;100181.03;1835651;76;21009;-59
2022/11/24 07:31:29;;;;;;;23.25;12.47;;;;;;;2.04;100.00;100180.23;1837043;76;20879;-61
2022/11/24 07:33:57;;;;;;;19.90;11.63;;;;;;;2.07;100.00;100173.08;1827023;76;21271;-64
2022/11/24 07:36:24;;;;;;;23.92;12.78;;;;;;;2.11;100.00;100155.16;1834872;76;20950;-60
2022/11/24 07:38:52;;;;;;;19.45;10.78;;;;;;;2.16;100.00;100149.65;1824992;76;20953;-61
2022/11/24 07:41:20;;;;;;;20.97;11.70;;;;;;;2.28;100.00;100153.73;1827895;76;20965;-59
2022/11/24 07:43:47;;;;;;;18.73;10.43;;;;;;;2.43;100.00;100168.32;1832090;76;21050;-59
2022/11/24 07:46:16;;;;;;;17.25;10.63;;;;;;;2.58;100.00;100170.04;1825545;76;21318;-65
2022/11/24 07:48:43;;;;;;;22.75;11.70;;;;;;;2.71;100.00;100167.20;1828033;76;21147;-60
2022/11/24 07:51:11;;;;;;;17.82;10.58;;;;;;;2.78;100.00;100179.87;1803557;77;21047;-59
2022/11/24 07:53:38;;;;;;;19.37;11.70;;;;;;;3.03;100.00;100178.05;1809489;78;21108;-60
2022/11/24 07:56:06;;;;;;;20.25;11.73;;;;;;;3.29;100.00;100165.87;1808537;77;21029;-66
2022/11/24 07:58:35;;;;;;;18.07;10.93;;;;;;;3.52;100.00;100159.45;1799123;78;22378;-62
2022/11/24 08:01:10;;;;;;;21.63;11.43;;;;;;;3.73;100.00;100159.75;1808994;78;23141;-61
2022/11/24 08:03:38;;;;;;;18.87;11.40;;;;;;;3.92;100.00;100164.83;1817748;77;21222;-61
2022/11/24 08:06:05;;;;;;;19.00;11.60;;;;;;;4.05;100.00;100165.33;1816156;77;21290;-67
2022/11/24 08:08:32;;;;;;;17.23;11.17;;;;;;;4.10;100.00;100141.67;1815384;77;21551;-62
2022/11/24 08:11:13;;;;;;;17.00;9.90;;;;;;;4.13;100.00;100140.11;1812560;78;21946;-61
2022/11/24 08:13:41;;;;;;;17.90;10.60;;;;;;;4.08;100.00;100136.64;1810485;78;21120;-61
2022/11/24 08:16:15;;;;;;;18.67;10.80;;;;;;;4.08;100.00;100136.64;1809188;78;21034;-62
2022/11/24 08:18:43;;;;;;;20.00;10.77;;;;;;;4.25;100.00;100139.42;1807327;78;21268;-62
2022/11/24 08:21:13;;;;;;;16.50;11.20;;;;;;;4.36;100.00;100134.87;1811812;78;21791;-61
2022/11/24 08:23:41;;;;;;;16.35;9.68;;;;;;;4.29;100.00;100131.72;1813953;78;21244;-63
2022/11/24 08:26:14;;;;;;;17.23;11.07;;;;;;;4.31;100.00;100129.31;1808463;78;20950;-63
2022/11/24 08:28:42;;;;;;;19.73;10.20;;;;;;;4.15;100.00;100128.66;1809436;77;21731;-63
2022/11/24 08:31:12;;;;;;;15.90;10.43;;;;;;;4.08;100.00;100126.33;1803885;79;21703;-61
2022/11/24 08:33:39;;;;;;;16.20;10.17;;;;;;;3.99;100.00;100127.68;1801306;78;21203;-61
2022/11/24 08:36:10;;;;;;;18.90;10.97;;;;;;;3.92;100.00;100127.44;1806304;77;21452;-66
2022/11/24 08:38:38;;;;;;;17.90;11.00;;;;;;;3.83;100.00;100117.98;1821088;77;22616;-60
2022/11/24 08:41:10;;;;;;;16.73;10.70;;;;;;;3.76;100.00;100127.24;1826791;77;20987;-61
2022/11/24 08:43:37;;;;;;;19.73;11.33;;;;;;;3.70;100.00;100127.31;1805083;77;21657;-60
2022/11/24 08:46:13;;;;;;;18.00;10.17;;;;;;;3.62;100.00;100119.00;1787155;79;21725;-59
2022/11/24 08:48:40;;;;;;;16.63;10.70;;;;;;;3.59;100.00;100116.70;1782708;79;21838;-62
2022/11/24 08:51:09;;;;;;;19.80;11.20;;;;;;;3.60;100.00;100119.64;1795679;79;21033;-61
2022/11/24 08:53:38;;;;;;;18.42;10.15;;;;;;;3.61;100.00;100126.41;1815263;77;22735;-60
2022/11/24 08:56:07;;;;;;;18.13;11.90;;;;;;;3.66;100.00;100120.82;1801279;77;21101;-65
2022/11/24 08:58:34;;;;;;;16.63;9.67;;;;;;;3.71;100.00;100114.75;1810598;77;22915;-61
2022/11/24 09:01:06;;;;;;;16.77;10.30;;;;;;;3.77;100.00;100112.10;1806442;77;21307;-66
2022/11/24 09:03:34;;;;;;;17.57;10.13;;;;;;;3.77;100.00;100114.68;1802024;78;21498;-61
2022/11/24 09:06:01;;;;;;;18.33;11.57;;;;;;;3.84;100.00;100108.00;1791360;79;21279;-60
2022/11/24 09:08:30;;;;;;;19.93;11.23;;;;;;;3.87;100.00;100108.53;1787319;79;21092;-59
2022/11/24 09:11:02;;;;;;;15.33;9.50;;;;;;;3.98;100.00;100098.50;1806679;77;21688;-63
2022/11/24 09:13:30;;;;;;;15.63;9.80;;;;;;;4.06;100.00;100093.91;1828031;77;21291;-58
2022/11/24 09:16:11;;;;;;;16.43;10.30;;;;;;;4.13;100.00;100106.57;1811830;77;21168;-59
2022/11/24 09:18:38;;;;;;;15.70;10.10;;;;;;;4.17;100.00;100118.67;1802738;77;21732;-66
2022/11/24 09:21:17;;;;;;;15.37;10.00;;;;;;;4.19;100.00;100124.03;1796720;79;21155;-60
2022/11/24 09:23:47;;;;;;;15.70;10.13;;;;;;;4.21;100.00;100135.52;1772634;79;21221;-61
2022/11/24 09:26:17;;;;;;;17.23;9.50;;;;;;;4.23;100.00;100134.88;1794849;79;21789;-60
2022/11/24 09:28:44;;;;;;;15.77;10.00;;;;;;;4.27;100.00;100128.46;1778281;78;21180;-59
2022/11/24 09:31:13;;;;;;;17.30;9.93;;;;;;;4.26;100.00;100135.87;1800638;79;21688;-62
2022/11/24 09:33:41;;;;;;;15.47;9.67;;;;;;;4.31;100.00;100128.50;1770102;78;21210;-66
2022/11/24 09:36:08;;;;;;;14.23;9.90;;;;;;;4.35;100.00;100132.41;1804160;78;21278;-60
2022/11/24 09:38:36;;;;;;;20.37;10.30;;;;;;;4.41;100.00;100115.55;1788726;78;21212;-67
2022/11/24 09:41:32;;;;;;;17.07;10.80;;;;;;;4.51;100.00;100107.23;1769679;79;21393;-60
2022/11/24 09:44:13;;;;;;;17.70;10.83;;;;;;;4.57;100.00;100104.08;1788531;79;21287;-60
2022/11/24 09:47:08;;;;;;;18.47;11.30;;;;;;;4.61;100.00;100104.11;1798023;79;21255;-59
2022/11/24 09:49:45;;;;;;;17.17;10.57;;;;;;;4.63;100.00;100104.30;1794801;79;21203;-67
2022/11/24 09:52:16;;;;;;;16.93;10.87;;;;;;;4.62;100.00;100107.02;1809657;77;21164;-61
2022/11/24 09:54:54;;;;;;;17.35;11.12;;;;;;;4.57;100.00;100106.17;1820150;77;21216;-65
2022/11/24 09:57:22;;;;;;;19.37;11.63;;;;;;;4.53;100.00;100102.27;1811474;77;20919;-61
2022/11/24 09:59:51;;;;;;;17.60;11.50;;;;;;;4.53;100.00;100102.27;1805647;77;21878;-60
2022/11/24 10:02:18;;;;;;;18.20;10.83;;;;;;;4.55;100.00;100099.08;1827632;77;21448;-60
2022/11/24 10:04:46;;;;;;;18.73;10.90;;;;;;;4.57;100.00;100093.27;1833236;77;21275;-60
2022/11/24 10:07:33;;;;;;;19.43;11.90;;;;;;;4.58;100.00;100087.17;1814403;77;21233;-60
2022/11/24 10:10:08;;;;;;;18.90;12.07;;;;;;;4.62;100.00;100096.23;1840073;77;21329;-59
2022/11/24 10:13:04;;;;;;;19.50;12.07;;;;;;;4.62;100.00;100101.41;1782726;79;21139;-59
2022/11/24 10:16:19;;;;;;;19.40;11.90;;;;;;;4.66;100.00;100095.46;1752979;80;21241;-61
2022/11/24 10:19:22;;;;;;;17.03;11.53;;;;;;;4.74;100.00;100104.56;1753810;80;21572;-62
2022/11/24 10:22:16;;;;;;;16.73;11.30;;;;;;;4.77;100.00;100105.56;1767017;80;21269;-66
2022/11/24 10:25:12;;;;;;;16.17;10.00;;;;;;;4.78;100.00;100098.63;1753719;80;21139;-60
2022/11/24 10:27:50;;;;;;;18.77;11.83;;;;;;;4.78;100.00;100099.43;1752375;80;22020;-64
2022/11/24 10:30:20;;;;;;;19.03;12.10;;;;;;;4.73;100.00;100093.08;1750556;81;21453;-61
2022/11/24 10:32:55;;;;;;;17.07;10.90;;;;;;;4.70;100.00;100088.20;1827845;77;21187;-68
2022/11/24 10:35:53;;;;;;;19.53;11.97;;;;;;;4.66;100.00;100089.46;1825850;77;21214;-62
2022/11/24 10:38:46;;;;;;;19.43;11.10;;;;;;;4.63;100.00;100084.95;1825703;77;21581;-62
2022/11/24 10:41:18;;;;;;;18.10;11.63;;;;;;;4.64;100.00;100083.98;1821605;77;20969;-60
2022/11/24 10:43:45;;;;;;;16.67;11.08;;;;;;;4.68;100.00;100088.36;1814359;77;27300;-63
2022/11/24 10:46:17;;;;;;;16.07;10.47;;;;;;;4.69;100.00;100077.55;1801280;78;21018;-62
2022/11/24 10:48:49;;;;;;;16.13;10.97;;;;;;;4.73;100.00;100072.42;1795674;78;21669;-67
2022/11/24 10:51:45;;;;;;;17.80;11.12;;;;;;;4.74;100.00;100065.02;1790399;78;24945;-61
2022/11/24 10:54:22;;;;;;;18.30;10.40;;;;;;;4.76;100.00;100048.40;1783478;78;21446;-69
2022/11/24 10:56:51;;;;;;;17.80;9.93;;;;;;;4.81;100.00;100053.11;1790285;78;21297;-67
2022/11/24 10:59:35;;;;;;;15.43;10.47;;;;;;;4.84;100.00;100047.65;1788676;79;22429;-60
2022/11/24 11:02:21;;;;;;;16.57;10.77;;;;;;;4.87;100.00;100045.58;1783537;78;21651;-59
2022/11/24 11:04:48;;;;;;;18.80;11.17;;;;;;;4.91;100.00;100033.17;1801249;77;21617;-59
2022/11/24 11:07:22;;;;;;;17.30;10.33;;;;;;;4.85;100.00;100036.38;1830233;77;21072;-59
2022/11/24 11:09:50;;;;;;;15.53;9.67;;;;;;;4.81;100.00;100032.45;1828412;77;21574;-60
2022/11/24 11:12:23;;;;;;;15.97;9.73;;;;;;;4.80;100.00;100029.55;1797914;77;21304;-69
2022/11/24 11:14:51;;;;;;;14.27;9.77;;;;;;;4.74;100.00;100032.75;1789776;79;22342;-59
2022/11/24 11:17:36;;;;;;;15.80;9.93;;;;;;;4.72;100.00;100039.82;1767360;79;21116;-67
2022/11/24 11:20:06;;;;;;;15.63;10.13;;;;;;;4.68;100.00;100039.79;1775181;79;21325;-68
2022/11/24 11:22:36;;;;;;;17.62;11.12;;;;;;;4.70;100.00;100035.27;1776326;79;21314;-59
2022/11/24 11:25:11;;;;;;;19.03;11.23;;;;;;;4.71;100.00;100029.98;1790533;79;21193;-61
2022/11/24 11:27:39;;;;;;;14.97;9.37;;;;;;;4.75;100.00;100027.91;1780307;79;21275;-69
2022/11/24 11:30:22;;;;;;;15.20;10.27;;;;;;;4.78;100.00;100025.03;1775505;79;21811;-60
2022/11/24 11:32:59;;;;;;;14.90;9.73;;;;;;;4.77;100.00;100025.97;1805536;77;21229;-59
2022/11/24 11:35:28;;;;;;;15.07;9.63;;;;;;;4.76;100.00;100022.58;1840571;77;21299;-60
2022/11/24 11:38:00;;;;;;;14.40;8.47;;;;;;;4.73;100.00;100020.78;1805366;78;21356;-59
2022/11/24 11:40:29;;;;;;;13.57;9.40;;;;;;;4.72;100.00;100010.94;1811907;77;21771;-59
2022/11/24 11:43:02;;;;;;;13.63;9.13;;;;;;;4.75;100.00;100016.28;1823058;77;21202;-60
2022/11/24 11:45:37;;;;;;;13.47;8.63;;;;;;;4.75;100.00;100015.00;1824110;77;21607;-60
2022/11/24 11:48:29;;;;;;;12.63;8.47;;;;;;;4.78;100.00;100020.67;1805059;77;21252;-60
2022/11/24 11:51:08;;;;;;;13.30;7.97;;;;;;;4.85;100.00;100015.72;1788661;79;21190;-60
2022/11/24 11:53:52;;;;;;;12.70;8.93;;;;;;;4.84;100.00;100007.62;1749952;79;21392;-60
2022/11/24 11:56:29;;;;;;;14.77;9.23;;;;;;;4.87;100.00;100006.03;1778672;79;22439;-62
2022/11/24 11:59:38;;;;;;;14.70;8.80;;;;;;;4.87;100.00;100017.65;1781236;79;21297;-60
2022/11/24 12:02:38;;;;;;;13.97;9.03;;;;;;;4.83;100.00;100008.10;1783192;79;21590;-61
2022/11/24 12:05:21;;;;;;;15.17;8.77;;;;;;;4.81;100.00;99997.59;1767151;79;21686;-64
2022/11/24 12:07:57;;;;;;;13.30;8.17;;;;;;;4.89;100.00;99987.33;1770963;79;21201;-60
2022/11/24 12:10:45;;;;;;;14.63;8.57;;;;;;;4.95;100.00;99977.66;1774879;79;21846;-60
2022/11/24 12:13:36;;;;;;;15.00;7.80;;;;;;;5.00;100.00;99978.03;1789150;79;21308;-60
2022/11/24 12:16:14;;;;;;;11.17;8.53;;;;;;;5.02;100.00;99978.67;1779960;79;21628;-65
2022/11/24 12:18:49;;;;;;;15.73;9.70;;;;;;;5.04;100.00;99986.28;1793574;79;21276;-61
2022/11/24 12:21:35;;;;;;;13.90;9.77;;;;;;;5.08;100.00;99985.81;1766619;79;21402;-60
2022/11/24 12:24:10;;;;;;;14.20;9.07;;;;;;;5.09;100.00;99983.55;1780501;79;21763;-62
2022/11/24 12:26:53;;;;;;;12.30;8.13;;;;;;;5.05;100.00;99986.61;1793813;79;21153;-59
2022/11/24 12:29:50;;;;;;;15.70;8.90;;;;;;;4.95;100.00;99987.19;1769169;79;21328;-59
2022/11/24 12:33:01;;;;;;;14.87;8.90;;;;;;;4.91;100.00;99986.68;1807493;77;21876;-60
2022/11/24 12:35:39;;;;;;;15.65;9.65;;;;;;;4.85;100.00;99978.27;1800600;78;21670;-61
2022/11/24 12:38:45;;;;;;;14.03;9.40;;;;;;;4.77;100.00;99980.33;1783906;78;21059;-70
2022/11/24 12:41:35;;;;;;;16.13;9.70;;;;;;;4.69;100.00;99976.86;1781958;79;21197;-67
2022/11/24 12:44:04;;;;;;;15.60;9.58;;;;;;;4.57;100.00;99971.95;1763541;78;21086;-60
2022/11/24 12:47:02;;;;;;;14.67;9.67;;;;;;;4.47;100.00;99972.54;1784683;78;21258;-61
2022/11/24 12:49:38;;;;;;;15.97;9.43;;;;;;;4.41;100.00;99980.06;1778332;78;21338;-60
2022/11/24 12:52:22;;;;;;;14.57;10.07;;;;;;;4.38;100.00;99976.00;1795715;78;21494;-60
2022/11/24 12:54:49;;;;;;;16.57;10.10;;;;;;;4.34;100.00;99973.39;1792273;79;21824;-60
2022/11/24 12:57:36;;;;;;;16.47;11.43;;;;;;;4.36;100.00;99984.39;1782776;79;21559;-60
2022/11/24 13:00:17;;;;;;;18.83;9.73;;;;;;;4.33;100.00;99976.94;1805630;78;21138;-63
2022/11/24 13:03:20;;;;;;;15.47;9.97;;;;;;;4.26;100.00;99968.98;1783551;79;22711;-60
2022/11/24 13:05:57;;;;;;;17.80;10.43;;;;;;;4.22;100.00;99988.78;1741764;78;21352;-61
2022/11/24 13:08:26;;;;;;;16.23;9.77;;;;;;;4.21;100.00;99982.81;1804503;79;21215;-60
2022/11/24 13:10:53;;;;;;;16.87;10.57;;;;;;;4.15;100.00;99988.07;1780047;78;21312;-74
2022/11/24 13:13:22;;;;;;;19.63;9.33;;;;;;;4.12;100.00;99978.53;1775143;79;21323;-69
2022/11/24 13:15:57;;;;;;;15.87;10.00;;;;;;;4.09;100.00;99974.50;1762970;79;21340;-61
2022/11/24 13:18:58;;;;;;;17.30;10.10;;;;;;;4.02;100.00;99981.20;1809201;77;21244;-65
2022/11/24 13:21:34;;;;;;;15.53;9.63;;;;;;;3.98;100.00;99977.30;1792674;77;21700;-60
2022/11/24 13:24:04;;;;;;;16.77;10.30;;;;;;;3.82;100.00;99981.79;1800064;78;21247;-60
2022/11/24 13:26:46;;;;;;;13.08;8.90;;;;;;;3.78;100.00;99980.95;1808313;78;21342;-60
